Time;durP1;ratioP1;P1;durP2;ratioP2;P2;SDS_P1;SDS_P2;PMS_P1;PMS_P2;Temp;Humidity;BMP_temperature;BMP_pressure;BME280_temperature;BME280_humidity;BME280_pressure;Samples;Min_cycle;Max_cycle;Signal;HPM_P1;HPM_P2
2022/01/18 00:00:48;;;;;;;9.57;2.78;;;;;;;;;;5095366;28;43828;-22
2022/01/18 00:03:15;;;;;;;9.20;2.45;;;;;;;;;;5093992;28;44039;-26
2022/01/18 00:05:43;;;;;;;12.15;3.72;;;;;;;;;;5107717;28;43762;-25
2022/01/18 00:08:10;;;;;;;10.02;2.65;;;;;;;;;;5095353;28;44078;-23
2022/01/18 00:10:37;;;;;;;10.98;2.13;;;;;;;;;;5106222;28;43844;-24
2022/01/18 00:15:55;;;;;;;7.22;2.42;;;;;;;;;;5107487;28;20255;-24
2022/01/18 00:18:22;;;;;;;9.77;2.70;;;;;;;;;;5105858;28;20705;-25
2022/01/18 00:23:46;;;;;;;7.13;2.40;;;;;;;;;;5103696;28;20322;-27
2022/01/18 00:26:14;;;;;;;9.63;2.65;;;;;;;;;;5102132;28;20228;-23
2022/01/18 00:28:42;;;;;;;9.73;2.47;;;;;;;;;;5114020;28;20218;-28
2022/01/18 00:34:07;;;;;;;7.00;2.70;;;;;;;;;;5102074;28;21072;-23
2022/01/18 00:37:26;;;;;;;5.95;2.42;;;;;;;;;;5106797;28;21055;-27
2022/01/18 00:39:29;;;;;;;8.05;2.50;;;;;;;;;;5095734;27;20237;-25
2022/01/18 00:41:56;;;;;;;12.43;2.95;;;;;;;;;;5104501;28;20690;-25
2022/01/18 00:44:23;;;;;;;7.40;1.90;;;;;;;;;;5101908;28;20240;-23
2022/01/18 00:46:50;;;;;;;10.05;3.03;;;;;;;;;;5117461;28;20457;-25
2022/01/18 00:49:17;;;;;;;53.55;4.80;;;;;;;;;;5107158;28;20446;-22
2022/01/18 00:51:51;;;;;;;18.30;2.83;;;;;;;;;;5105117;28;20969;-23
2022/01/18 00:54:23;;;;;;;16.02;3.80;;;;;;;;;;5104511;28;20237;-24
2022/01/18 00:56:52;;;;;;;15.13;2.58;;;;;;;;;;5104673;28;20198;-23
2022/01/18 00:59:19;;;;;;;13.68;3.10;;;;;;;;;;5105051;28;20213;-22
2022/01/18 01:01:46;;;;;;;23.20;3.15;;;;;;;;;;5104995;28;20229;-23
2022/01/18 01:04:13;;;;;;;12.35;2.47;;;;;;;;;;5105417;28;20268;-25
2022/01/18 01:06:40;;;;;;;10.27;2.75;;;;;;;;;;5105359;28;20249;-21
2022/01/18 01:09:10;;;;;;;10.13;2.85;;;;;;;;;;5104270;28;20228;-24
2022/01/18 01:11:39;;;;;;;15.15;2.85;;;;;;;;;;5105204;28;20209;-22
2022/01/18 01:14:06;;;;;;;13.82;2.35;;;;;;;;;;5104770;28;20319;-22
2022/01/18 01:16:50;;;;;;;12.68;3.00;;;;;;;;;;5104408;28;20221;-22
2022/01/18 01:19:32;;;;;;;11.50;2.72;;;;;;;;;;5104614;28;20220;-23
2022/01/18 01:33:49;;;;;;;13.88;2.53;;;;;;;;;;5104849;28;21110;-22
2022/01/18 01:44:08;;;;;;;11.45;2.60;;;;;;;;;;5104359;28;20217;-21
2022/01/18 01:46:36;;;;;;;9.10;2.95;;;;;;;;;;5105642;28;20223;-25
2022/01/18 01:49:07;;;;;;;11.43;2.72;;;;;;;;;;5106073;28;20237;-26
2022/01/18 01:51:34;;;;;;;10.43;2.90;;;;;;;;;;5105415;28;21108;-23
2022/01/18 01:54:01;;;;;;;8.57;2.53;;;;;;;;;;5105333;28;20218;-24
2022/01/18 01:56:28;;;;;;;12.30;2.50;;;;;;;;;;5105256;28;21041;-23
2022/01/18 01:58:55;;;;;;;9.95;2.67;;;;;;;;;;5103830;28;20213;-25
2022/01/18 02:01:22;;;;;;;10.70;2.58;;;;;;;;;;5103342;28;20220;-23
2022/01/18 02:03:49;;;;;;;9.50;2.38;;;;;;;;;;5104609;28;20235;-23
2022/01/18 02:06:16;;;;;;;9.82;2.60;;;;;;;;;;5105084;28;20213;-24
2022/01/18 02:08:43;;;;;;;8.15;2.15;;;;;;;;;;5104143;28;20201;-25
2022/01/18 02:11:10;;;;;;;9.90;2.53;;;;;;;;;;5104400;28;20228;-24
2022/01/18 02:13:37;;;;;;;7.93;2.33;;;;;;;;;;5104381;28;20222;-24
2022/01/18 02:24:02;;;;;;;10.45;2.60;;;;;;;;;;5104945;28;20746;-25
2022/01/18 02:26:29;;;;;;;8.88;2.55;;;;;;;;;;5104640;28;20225;-25
2022/01/18 02:28:56;;;;;;;11.95;2.58;;;;;;;;;;5100450;28;20699;-23
2022/01/18 02:31:23;;;;;;;8.70;2.30;;;;;;;;;;5092283;28;20232;-24
2022/01/18 02:33:50;;;;;;;11.50;2.72;;;;;;;;;;5104534;28;20213;-22
2022/01/18 02:36:17;;;;;;;9.65;2.60;;;;;;;;;;5103990;28;20236;-23
2022/01/18 02:38:44;;;;;;;7.28;2.10;;;;;;;;;;5087207;28;20224;-22
2022/01/18 02:41:12;;;;;;;9.15;2.85;;;;;;;;;;5104861;28;20244;-22
2022/01/18 02:43:53;;;;;;;12.30;2.80;;;;;;;;;;5104058;28;20227;-23
2022/01/18 02:46:20;;;;;;;8.30;2.22;;;;;;;;;;5104803;28;20224;-27
2022/01/18 02:48:47;;;;;;;10.43;2.58;;;;;;;;;;5103567;28;20298;-23
2022/01/18 02:51:14;;;;;;;12.90;2.70;;;;;;;;;;5104727;28;20227;-23
2022/01/18 02:53:41;;;;;;;10.25;2.25;;;;;;;;;;5104225;28;20221;-22
2022/01/18 02:56:08;;;;;;;6.47;1.80;;;;;;;;;;5104191;28;20224;-23
2022/01/18 02:58:37;;;;;;;8.00;2.25;;;;;;;;;;5104348;28;21368;-24
2022/01/18 03:03:32;;;;;;;8.98;2.10;;;;;;;;;;5104358;28;20319;-24
2022/01/18 03:06:00;;;;;;;5.15;2.10;;;;;;;;;;5104277;28;20339;-25
2022/01/18 03:08:27;;;;;;;7.50;2.22;;;;;;;;;;5103963;28;20304;-26
2022/01/18 03:10:55;;;;;;;10.25;2.88;;;;;;;;;;5104411;28;20255;-22
2022/01/18 03:13:22;;;;;;;7.78;2.78;;;;;;;;;;5103406;28;20223;-23
2022/01/18 03:15:49;;;;;;;12.15;2.67;;;;;;;;;;5104312;28;20250;-24
2022/01/18 03:18:16;;;;;;;10.00;2.80;;;;;;;;;;5104502;28;20228;-23
2022/01/18 03:20:43;;;;;;;6.13;1.95;;;;;;;;;;5103320;28;20209;-22
2022/01/18 03:23:15;;;;;;;7.47;2.10;;;;;;;;;;5103517;28;20231;-23
2022/01/18 03:25:54;;;;;;;7.80;2.38;;;;;;;;;;5104241;28;20205;-24
2022/01/18 03:28:21;;;;;;;11.55;2.72;;;;;;;;;;5103642;28;20227;-25
2022/01/18 03:30:49;;;;;;;11.80;2.55;;;;;;;;;;5103357;28;20208;-22
2022/01/18 03:33:16;;;;;;;7.78;2.50;;;;;;;;;;5104614;28;20213;-23
2022/01/18 03:35:43;;;;;;;7.50;2.22;;;;;;;;;;5104085;28;20221;-23
2022/01/18 03:38:10;;;;;;;7.47;2.08;;;;;;;;;;5103726;28;20911;-23
2022/01/18 03:40:37;;;;;;;10.65;2.40;;;;;;;;;;5104414;28;20235;-23
2022/01/18 03:43:06;;;;;;;9.15;2.20;;;;;;;;;;5104161;28;20232;-25
2022/01/18 03:45:39;;;;;;;9.45;2.42;;;;;;;;;;5103840;28;20225;-25
2022/01/18 03:48:09;;;;;;;10.60;2.10;;;;;;;;;;5104422;28;20231;-25
2022/01/18 03:50:36;;;;;;;8.48;2.72;;;;;;;;;;5103547;28;20239;-22
2022/01/18 03:53:03;;;;;;;9.57;2.30;;;;;;;;;;5103313;28;20225;-23
2022/01/18 03:55:31;;;;;;;7.50;2.55;;;;;;;;;;5104044;28;20287;-24
2022/01/18 03:57:58;;;;;;;10.70;2.60;;;;;;;;;;5103937;28;20217;-26
2022/01/18 04:00:26;;;;;;;6.75;1.98;;;;;;;;;;5104432;28;20209;-24
2022/01/18 04:02:53;;;;;;;11.80;2.58;;;;;;;;;;5103997;28;20228;-22
2022/01/18 04:05:20;;;;;;;6.35;2.22;;;;;;;;;;5103695;28;20268;-23
2022/01/18 04:07:47;;;;;;;7.28;2.50;;;;;;;;;;5103662;28;20213;-23
2022/01/18 04:10:14;;;;;;;6.05;2.15;;;;;;;;;;5103514;28;20217;-22
2022/01/18 04:12:41;;;;;;;11.07;2.63;;;;;;;;;;5103988;28;20208;-22
2022/01/18 04:15:08;;;;;;;5.55;1.73;;;;;;;;;;5103669;28;20221;-23
2022/01/18 04:17:52;;;;;;;12.15;2.35;;;;;;;;;;5103249;28;20225;-25
2022/01/18 04:26:00;;;;;;;11.20;2.80;;;;;;;;;;5108005;28;20225;-24
2022/01/18 04:28:44;;;;;;;9.45;2.70;;;;;;;;;;5108104;28;20229;-22
2022/01/18 04:31:11;;;;;;;11.95;2.45;;;;;;;;;;5105061;28;20228;-23
2022/01/18 04:33:38;;;;;;;7.22;2.20;;;;;;;;;;5107298;28;20286;-23
2022/01/18 04:36:05;;;;;;;5.53;2.00;;;;;;;;;;5107303;28;20233;-24
2022/01/18 04:38:32;;;;;;;7.05;2.45;;;;;;;;;;5106733;28;21125;-22
2022/01/18 04:41:05;;;;;;;9.00;2.88;;;;;;;;;;5107076;28;20270;-23
2022/01/18 04:44:04;;;;;;;7.80;2.45;;;;;;;;;;5106777;28;20332;-25
2022/01/18 04:49:17;;;;;;;8.60;2.42;;;;;;;;;;5094631;28;20231;-22
2022/01/18 04:51:46;;;;;;;9.82;2.53;;;;;;;;;;5106926;28;20231;-24
2022/01/18 04:54:14;;;;;;;7.15;2.38;;;;;;;;;;5106972;28;20229;-24
2022/01/18 04:59:08;;;;;;;6.30;2.50;;;;;;;;;;5106522;28;20225;-22
2022/01/18 05:01:35;;;;;;;6.70;2.35;;;;;;;;;;5107102;28;20339;-23
2022/01/18 05:04:03;;;;;;;6.88;2.47;;;;;;;;;;5106722;28;20220;-22
2022/01/18 05:06:30;;;;;;;7.63;2.35;;;;;;;;;;5107450;28;20235;-24
2022/01/18 05:09:00;;;;;;;7.70;2.30;;;;;;;;;;5103652;28;20742;-24
2022/01/18 05:11:30;;;;;;;9.18;2.38;;;;;;;;;;5095343;28;20209;-22
2022/01/18 05:14:14;;;;;;;8.13;2.90;;;;;;;;;;5106446;28;20217;-21
2022/01/18 05:17:33;;;;;;;7.10;2.00;;;;;;;;;;5106320;28;20263;-22
2022/01/18 05:24:31;;;;;;;6.70;2.10;;;;;;;;;;5105664;28;20209;-23
2022/01/18 05:26:58;;;;;;;4.90;2.05;;;;;;;;;;5102143;28;20239;-26
2022/01/18 05:29:25;;;;;;;8.35;2.10;;;;;;;;;;5094099;28;20220;-23
2022/01/18 05:31:52;;;;;;;10.40;2.47;;;;;;;;;;5105181;28;20213;-26
2022/01/18 05:34:19;;;;;;;8.57;2.50;;;;;;;;;;5105596;28;20320;-23
2022/01/18 05:36:46;;;;;;;5.00;1.83;;;;;;;;;;5105314;28;20233;-22
2022/01/18 05:39:13;;;;;;;8.23;2.15;;;;;;;;;;5105694;28;20228;-25
2022/01/18 05:41:40;;;;;;;6.10;1.92;;;;;;;;;;5106308;28;20270;-23
2022/01/18 05:44:07;;;;;;;6.82;2.45;;;;;;;;;;5105752;28;20209;-23
2022/01/18 05:46:34;;;;;;;5.00;1.77;;;;;;;;;;5105798;28;20217;-26
2022/01/18 05:49:02;;;;;;;4.30;1.90;;;;;;;;;;5106043;28;20213;-24
2022/01/18 05:51:29;;;;;;;5.47;1.95;;;;;;;;;;5105791;28;20221;-22
2022/01/18 05:53:56;;;;;;;5.82;2.03;;;;;;;;;;5105842;28;20220;-23
2022/01/18 05:56:28;;;;;;;5.75;2.03;;;;;;;;;;5106116;28;20228;-26
2022/01/18 05:58:59;;;;;;;6.28;1.75;;;;;;;;;;5105884;28;20225;-22
2022/01/18 06:01:32;;;;;;;8.30;1.92;;;;;;;;;;5105358;28;20758;-22
2022/01/18 06:09:13;;;;;;;5.68;1.85;;;;;;;;;;5104004;28;20251;-24
2022/01/18 06:11:40;;;;;;;5.50;1.98;;;;;;;;;;5104812;28;20233;-23
2022/01/18 06:14:06;;;;;;;8.75;1.60;;;;;;;;;;5104062;28;20283;-23
2022/01/18 06:16:33;;;;;;;5.68;1.88;;;;;;;;;;5103912;28;20220;-27
2022/01/18 06:19:00;;;;;;;4.90;1.63;;;;;;;;;;5104417;28;20223;-23
2022/01/18 06:21:28;;;;;;;4.53;1.63;;;;;;;;;;5104370;28;20220;-22
2022/01/18 06:23:55;;;;;;;4.22;1.58;;;;;;;;;;5104737;28;20665;-25
2022/01/18 06:26:22;;;;;;;4.97;1.73;;;;;;;;;;5104491;28;20278;-23
2022/01/18 06:28:49;;;;;;;3.33;1.42;;;;;;;;;;5103390;28;20217;-22
2022/01/18 06:31:17;;;;;;;4.80;1.75;;;;;;;;;;5119498;28;20228;-22
2022/01/18 06:33:44;;;;;;;3.42;1.40;;;;;;;;;;5104379;28;20221;-23
2022/01/18 06:36:12;;;;;;;6.13;1.65;;;;;;;;;;5104664;28;20279;-22
2022/01/18 06:38:39;;;;;;;3.28;1.27;;;;;;;;;;5104011;28;20308;-25
2022/01/18 06:41:05;;;;;;;5.88;1.55;;;;;;;;;;5104844;28;20216;-22
2022/01/18 06:43:32;;;;;;;6.20;1.40;;;;;;;;;;5104207;28;20219;-21
2022/01/18 06:46:00;;;;;;;5.35;1.60;;;;;;;;;;5104159;28;20229;-22
2022/01/18 06:48:27;;;;;;;8.98;1.73;;;;;;;;;;5104201;28;20335;-23
2022/01/18 06:50:54;;;;;;;4.95;1.88;;;;;;;;;;5103638;28;20217;-22
2022/01/18 06:53:21;;;;;;;5.43;1.67;;;;;;;;;;5104318;28;20312;-22
2022/01/18 06:55:52;;;;;;;3.90;1.40;;;;;;;;;;5104924;28;21029;-26
2022/01/18 06:58:19;;;;;;;3.90;1.38;;;;;;;;;;5104879;28;20221;-25
2022/01/18 07:00:46;;;;;;;4.88;1.85;;;;;;;;;;5103355;28;20229;-23
2022/01/18 07:03:13;;;;;;;3.95;1.38;;;;;;;;;;5104185;28;20229;-23
2022/01/18 07:05:40;;;;;;;5.50;1.88;;;;;;;;;;5104766;28;20259;-22
2022/01/18 07:08:12;;;;;;;5.00;1.27;;;;;;;;;;5104684;28;20261;-22
2022/01/18 07:10:39;;;;;;;3.60;1.20;;;;;;;;;;5104097;28;20217;-21
2022/01/18 07:13:08;;;;;;;5.55;1.95;;;;;;;;;;5103265;28;20798;-22
2022/01/18 07:15:35;;;;;;;3.20;1.25;;;;;;;;;;5103974;28;20235;-22
2022/01/18 07:18:05;;;;;;;5.80;1.60;;;;;;;;;;5103817;28;20289;-22
2022/01/18 07:20:33;;;;;;;5.95;1.55;;;;;;;;;;5103023;28;20305;-24
2022/01/18 07:23:00;;;;;;;3.50;1.48;;;;;;;;;;5104522;28;20213;-24
2022/01/18 07:25:27;;;;;;;6.60;1.40;;;;;;;;;;5092404;28;20833;-22
2022/01/18 07:27:54;;;;;;;4.20;1.45;;;;;;;;;;5103557;28;20221;-22
2022/01/18 07:30:21;;;;;;;4.28;1.45;;;;;;;;;;5103196;28;20233;-22
2022/01/18 07:32:48;;;;;;;3.78;1.17;;;;;;;;;;5103609;28;20239;-23
2022/01/18 07:35:15;;;;;;;3.28;1.17;;;;;;;;;;5103512;28;20223;-22
2022/01/18 07:37:43;;;;;;;3.80;1.17;;;;;;;;;;5103082;28;20237;-23
2022/01/18 07:40:10;;;;;;;2.58;1.17;;;;;;;;;;5103396;28;20361;-21
2022/01/18 07:42:37;;;;;;;2.83;1.20;;;;;;;;;;5102874;28;20233;-22
2022/01/18 07:45:04;;;;;;;4.13;1.45;;;;;;;;;;5102841;28;20225;-27
2022/01/18 07:47:31;;;;;;;2.90;1.02;;;;;;;;;;5102861;28;20209;-22
2022/01/18 07:49:58;;;;;;;4.68;1.30;;;;;;;;;;5102829;28;20785;-24
2022/01/18 07:52:25;;;;;;;5.72;1.67;;;;;;;;;;5102394;28;20328;-30
2022/01/18 07:54:52;;;;;;;3.83;1.38;;;;;;;;;;5102658;28;21160;-24
2022/01/18 07:57:20;;;;;;;3.78;1.40;;;;;;;;;;5103724;28;20308;-21
2022/01/18 07:59:47;;;;;;;3.33;1.05;;;;;;;;;;5106748;28;20312;-21
2022/01/18 08:02:19;;;;;;;2.88;1.15;;;;;;;;;;5106421;28;20319;-23
2022/01/18 08:04:46;;;;;;;3.42;1.15;;;;;;;;;;5107059;28;20239;-23
2022/01/18 08:07:13;;;;;;;3.72;1.10;;;;;;;;;;5107353;28;20311;-24
2022/01/18 08:09:40;;;;;;;2.17;1.08;;;;;;;;;;5106380;28;20243;-22
2022/01/18 08:12:07;;;;;;;3.97;1.05;;;;;;;;;;5103696;28;20312;-22
2022/01/18 08:14:34;;;;;;;2.58;1.05;;;;;;;;;;5105505;28;21727;-23
2022/01/18 08:17:01;;;;;;;4.22;1.02;;;;;;;;;;5105622;28;20232;-22
2022/01/18 08:19:28;;;;;;;3.60;1.40;;;;;;;;;;5105380;28;21578;-21
2022/01/18 08:21:56;;;;;;;3.10;1.13;;;;;;;;;;5106333;28;20251;-25
2022/01/18 08:24:22;;;;;;;4.57;1.40;;;;;;;;;;5119265;28;20219;-22
2022/01/18 08:26:49;;;;;;;4.20;1.27;;;;;;;;;;5105678;28;20213;-24
2022/01/18 08:29:16;;;;;;;2.42;1.15;;;;;;;;;;5106552;28;20255;-24
2022/01/18 08:32:04;;;;;;;4.53;1.13;;;;;;;;;;5119951;28;20232;-22
2022/01/18 08:34:31;;;;;;;3.38;1.20;;;;;;;;;;5107043;28;20221;-22
2022/01/18 08:36:58;;;;;;;3.08;1.13;;;;;;;;;;5105730;28;20235;-23
2022/01/18 08:39:25;;;;;;;3.97;1.35;;;;;;;;;;5106300;28;20223;-23
2022/01/18 08:41:52;;;;;;;4.40;1.00;;;;;;;;;;5106156;28;20220;-22
2022/01/18 08:44:19;;;;;;;3.42;1.17;;;;;;;;;;5106516;28;21221;-22
2022/01/18 08:46:46;;;;;;;3.35;1.35;;;;;;;;;;5105631;28;21046;-21
2022/01/18 08:49:13;;;;;;;5.45;1.60;;;;;;;;;;5105920;28;20216;-22
2022/01/18 08:51:40;;;;;;;3.67;1.50;;;;;;;;;;5106557;28;20225;-23
2022/01/18 08:54:07;;;;;;;4.72;1.42;;;;;;;;;;5105542;28;20219;-21
2022/01/18 08:56:34;;;;;;;6.38;1.50;;;;;;;;;;5105555;28;20200;-24
2022/01/18 08:59:20;;;;;;;6.88;1.35;;;;;;;;;;5105797;28;20232;-22
2022/01/18 09:01:47;;;;;;;2.67;1.00;;;;;;;;;;5105948;28;20247;-24
2022/01/18 09:04:14;;;;;;;6.43;1.35;;;;;;;;;;5106299;28;20212;-22
2022/01/18 09:06:41;;;;;;;4.60;1.08;;;;;;;;;;5105712;28;20240;-21
2022/01/18 09:09:09;;;;;;;2.58;1.20;;;;;;;;;;5105955;28;20213;-22
2022/01/18 09:11:36;;;;;;;7.47;1.38;;;;;;;;;;5105360;28;20698;-25
2022/01/18 09:14:03;;;;;;;4.80;1.20;;;;;;;;;;5105552;28;20217;-22
2022/01/18 09:16:30;;;;;;;4.88;1.50;;;;;;;;;;5105800;28;20274;-23
2022/01/18 09:18:57;;;;;;;3.20;1.50;;;;;;;;;;5105556;28;20247;-22
2022/01/18 09:21:24;;;;;;;5.18;1.45;;;;;;;;;;5104591;28;20228;-24
2022/01/18 09:23:51;;;;;;;7.43;0.93;;;;;;;;;;5105021;28;20231;-21
2022/01/18 09:26:18;;;;;;;4.68;1.08;;;;;;;;;;5105212;28;20209;-22
2022/01/18 09:28:45;;;;;;;5.63;1.52;;;;;;;;;;5104919;28;20212;-22
2022/01/18 09:31:12;;;;;;;7.20;1.60;;;;;;;;;;5105359;28;20223;-23
2022/01/18 09:33:39;;;;;;;3.10;1.20;;;;;;;;;;5099660;28;20323;-21
2022/01/18 09:36:06;;;;;;;7.07;1.63;;;;;;;;;;5107890;28;20317;-22
2022/01/18 09:38:33;;;;;;;10.48;1.50;;;;;;;;;;5099485;28;20244;-24
2022/01/18 09:41:08;;;;;;;19.13;1.70;;;;;;;;;;5101330;28;20223;-22
2022/01/18 09:43:35;;;;;;;9.23;1.30;;;;;;;;;;5103385;28;20227;-22
2022/01/18 09:46:02;;;;;;;4.75;1.52;;;;;;;;;;5084167;28;20757;-22
2022/01/18 09:48:29;;;;;;;6.07;1.67;;;;;;;;;;5082797;28;20225;-21
2022/01/18 09:50:56;;;;;;;9.40;1.77;;;;;;;;;;5092832;28;21046;-21
2022/01/18 09:53:23;;;;;;;6.47;1.10;;;;;;;;;;5100905;28;20217;-22
2022/01/18 09:55:51;;;;;;;12.85;1.67;;;;;;;;;;5102407;28;20217;-24
2022/01/18 09:58:18;;;;;;;7.13;2.17;;;;;;;;;;5103459;28;20332;-21
2022/01/18 10:00:46;;;;;;;5.40;1.70;;;;;;;;;;5099319;28;20225;-23
2022/01/18 10:03:13;;;;;;;4.60;1.42;;;;;;;;;;5096021;28;20224;-21
2022/01/18 10:05:40;;;;;;;8.80;1.57;;;;;;;;;;5100549;28;20440;-27
2022/01/18 10:08:07;;;;;;;8.52;1.45;;;;;;;;;;5100433;28;21074;-22
2022/01/18 10:10:34;;;;;;;7.15;1.40;;;;;;;;;;5101165;28;20221;-25
2022/01/18 10:13:01;;;;;;;5.57;1.33;;;;;;;;;;5101402;28;20212;-26
2022/01/18 10:15:29;;;;;;;6.93;1.40;;;;;;;;;;5103041;28;20209;-23
2022/01/18 10:17:56;;;;;;;3.58;1.23;;;;;;;;;;5101684;28;20209;-22
2022/01/18 10:20:23;;;;;;;4.80;1.27;;;;;;;;;;5101029;28;20244;-21
2022/01/18 10:22:50;;;;;;;9.65;1.42;;;;;;;;;;5099880;28;20221;-22
2022/01/18 10:25:17;;;;;;;7.07;1.45;;;;;;;;;;5101419;28;20384;-23
2022/01/18 10:27:45;;;;;;;12.05;1.52;;;;;;;;;;5101759;28;20680;-23
2022/01/18 10:30:19;;;;;;;3.42;1.05;;;;;;;;;;5102932;28;20232;-21
2022/01/18 10:32:46;;;;;;;4.38;1.20;;;;;;;;;;5101842;28;20236;-22
2022/01/18 10:35:13;;;;;;;8.57;1.58;;;;;;;;;;5101077;28;20228;-23
2022/01/18 10:37:45;;;;;;;5.68;1.60;;;;;;;;;;5100928;28;20236;-24
2022/01/18 10:40:11;;;;;;;7.22;1.60;;;;;;;;;;5099931;28;20221;-22
2022/01/18 10:42:39;;;;;;;4.78;1.40;;;;;;;;;;5100374;28;20225;-22
2022/01/18 10:45:08;;;;;;;8.25;1.60;;;;;;;;;;5101064;28;20232;-22
2022/01/18 10:47:35;;;;;;;6.13;1.52;;;;;;;;;;5100136;28;20427;-23
2022/01/18 10:50:01;;;;;;;6.22;1.55;;;;;;;;;;5101154;28;20597;-23
2022/01/18 10:52:28;;;;;;;3.08;1.40;;;;;;;;;;5100824;28;21069;-23
2022/01/18 10:54:56;;;;;;;4.70;1.52;;;;;;;;;;5098826;28;20216;-24
2022/01/18 10:57:23;;;;;;;4.15;1.58;;;;;;;;;;5098282;28;20228;-25
2022/01/18 10:59:50;;;;;;;6.38;1.33;;;;;;;;;;5101030;28;20229;-23
2022/01/18 11:02:17;;;;;;;6.00;1.33;;;;;;;;;;5099994;28;21453;-25
2022/01/18 11:04:45;;;;;;;7.53;1.50;;;;;;;;;;5099613;28;20205;-22
2022/01/18 11:07:12;;;;;;;4.75;1.55;;;;;;;;;;5101496;28;20255;-27
2022/01/18 11:09:39;;;;;;;7.07;1.65;;;;;;;;;;5101964;28;20713;-23
2022/01/18 11:12:06;;;;;;;5.57;1.23;;;;;;;;;;5100410;28;20952;-23
2022/01/18 11:14:36;;;;;;;5.72;1.70;;;;;;;;;;5099943;28;20209;-22
2022/01/18 11:17:03;;;;;;;7.82;1.40;;;;;;;;;;5099238;28;20213;-22
2022/01/18 11:19:33;;;;;;;4.38;1.40;;;;;;;;;;5099543;28;20212;-20
2022/01/18 11:22:00;;;;;;;3.33;1.00;;;;;;;;;;5098238;28;20224;-22
2022/01/18 11:24:28;;;;;;;4.05;1.30;;;;;;;;;;5097733;28;20204;-26
2022/01/18 11:26:55;;;;;;;4.97;1.50;;;;;;;;;;5098354;28;20224;-22
2022/01/18 11:29:22;;;;;;;3.85;1.40;;;;;;;;;;5102022;28;20216;-23
2022/01/18 11:31:49;;;;;;;4.07;1.90;;;;;;;;;;5100252;28;20415;-23
2022/01/18 11:34:16;;;;;;;5.72;1.90;;;;;;;;;;5099103;28;20221;-22
2022/01/18 11:36:43;;;;;;;5.53;1.88;;;;;;;;;;5105463;28;20246;-21
2022/01/18 11:39:11;;;;;;;7.05;2.30;;;;;;;;;;5105352;28;20228;-22
2022/01/18 11:41:38;;;;;;;10.52;2.28;;;;;;;;;;5099670;28;20460;-22
2022/01/18 11:44:05;;;;;;;10.43;2.60;;;;;;;;;;5096350;28;20226;-21
2022/01/18 11:46:32;;;;;;;9.95;2.40;;;;;;;;;;5098480;28;21604;-23
2022/01/18 11:48:59;;;;;;;8.68;1.98;;;;;;;;;;5095600;28;20228;-21
2022/01/18 11:51:26;;;;;;;10.20;2.00;;;;;;;;;;5094509;28;20213;-22
2022/01/18 11:56:20;;;;;;;5.93;2.92;;;;;;;;;;5097911;28;20431;-21
2022/01/18 11:58:47;;;;;;;6.85;2.90;;;;;;;;;;5098887;28;20209;-22
2022/01/18 12:01:17;;;;;;;10.95;2.83;;;;;;;;;;5097740;28;20221;-24
2022/01/18 12:03:44;;;;;;;9.98;3.15;;;;;;;;;;5098436;28;20223;-22
2022/01/18 12:06:11;;;;;;;7.85;2.35;;;;;;;;;;5097992;28;20224;-23
2022/01/18 12:08:38;;;;;;;12.80;2.70;;;;;;;;;;5097111;28;20498;-23
2022/01/18 12:11:05;;;;;;;10.88;2.95;;;;;;;;;;5096778;28;20224;-21
2022/01/18 12:13:36;;;;;;;8.73;2.85;;;;;;;;;;5089249;28;20447;-22
2022/01/18 12:16:03;;;;;;;5.28;3.08;;;;;;;;;;5083596;28;20251;-23
2022/01/18 12:18:30;;;;;;;9.13;2.50;;;;;;;;;;5072152;28;20218;-24
2022/01/18 12:20:57;;;;;;;9.32;2.60;;;;;;;;;;5081407;28;20900;-23
2022/01/18 12:23:24;;;;;;;9.68;2.20;;;;;;;;;;5093320;28;20235;-22
2022/01/18 12:25:59;;;;;;;5.22;2.33;;;;;;;;;;5085968;28;20216;-25
2022/01/18 12:28:32;;;;;;;7.90;2.70;;;;;;;;;;5092605;28;20235;-23
2022/01/18 12:31:16;;;;;;;11.40;2.15;;;;;;;;;;5091391;28;20228;-23
2022/01/18 12:33:43;;;;;;;5.57;2.13;;;;;;;;;;5092423;28;21421;-23
2022/01/18 12:36:10;;;;;;;6.18;2.03;;;;;;;;;;5089478;28;20680;-22
2022/01/18 12:38:37;;;;;;;7.25;2.22;;;;;;;;;;5092062;28;20241;-22
2022/01/18 12:41:04;;;;;;;7.30;2.17;;;;;;;;;;5086608;28;20233;-24
2022/01/18 12:46:17;;;;;;;5.30;1.95;;;;;;;;;;5092948;28;20228;-23
2022/01/18 12:48:44;;;;;;;6.05;2.08;;;;;;;;;;5091395;28;20224;-23
2022/01/18 12:51:13;;;;;;;6.20;2.30;;;;;;;;;;5095854;28;20228;-23
2022/01/18 12:53:40;;;;;;;6.82;2.38;;;;;;;;;;5094482;28;20332;-23
2022/01/18 12:56:09;;;;;;;4.85;2.50;;;;;;;;;;5095641;28;20228;-23
2022/01/18 12:58:36;;;;;;;5.70;2.40;;;;;;;;;;5095327;28;20335;-22
2022/01/18 13:01:03;;;;;;;5.97;2.00;;;;;;;;;;5095335;28;20245;-23
2022/01/18 13:03:30;;;;;;;7.05;2.33;;;;;;;;;;5095855;28;20232;-23
2022/01/18 13:05:57;;;;;;;4.70;2.17;;;;;;;;;;5095788;28;20976;-26
2022/01/18 13:08:24;;;;;;;5.55;2.42;;;;;;;;;;5094521;28;20224;-25
2022/01/18 13:10:51;;;;;;;7.35;4.05;;;;;;;;;;5088859;28;20227;-22
2022/01/18 13:13:20;;;;;;;7.90;3.10;;;;;;;;;;5079892;28;20232;-23
2022/01/18 13:15:51;;;;;;;10.63;4.45;;;;;;;;;;5091201;28;21148;-26
2022/01/18 13:26:44;;;;;;;9.63;4.60;;;;;;;;;;5103480;28;20224;-26
2022/01/18 13:29:12;;;;;;;10.98;3.75;;;;;;;;;;5110582;28;20232;-21
2022/01/18 13:31:40;;;;;;;9.27;3.47;;;;;;;;;;5096474;28;20217;-22
2022/01/18 13:34:11;;;;;;;9.70;3.50;;;;;;;;;;5102116;28;20690;-23
2022/01/18 13:36:38;;;;;;;7.60;3.55;;;;;;;;;;5102674;28;20239;-22
2022/01/18 13:39:05;;;;;;;7.68;3.03;;;;;;;;;;5102824;28;20228;-22
2022/01/18 13:41:32;;;;;;;9.18;3.42;;;;;;;;;;5083018;28;20228;-23
2022/01/18 13:43:59;;;;;;;7.22;3.30;;;;;;;;;;5082838;28;20225;-22
2022/01/18 13:46:26;;;;;;;8.40;3.80;;;;;;;;;;5094739;28;20217;-24
2022/01/18 13:48:53;;;;;;;9.38;4.07;;;;;;;;;;5103179;28;20272;-22
2022/01/18 13:51:20;;;;;;;6.05;3.33;;;;;;;;;;5102830;28;20212;-23
2022/01/18 13:53:47;;;;;;;6.60;3.33;;;;;;;;;;5103491;28;20235;-23
2022/01/18 13:56:14;;;;;;;5.53;3.22;;;;;;;;;;5103429;28;20219;-23
2022/01/18 13:58:42;;;;;;;6.80;3.00;;;;;;;;;;5103968;28;20213;-22
2022/01/18 14:01:09;;;;;;;8.48;3.63;;;;;;;;;;5104215;28;20245;-25
2022/01/18 14:03:36;;;;;;;5.30;2.95;;;;;;;;;;5103595;28;20217;-23
2022/01/18 14:06:04;;;;;;;8.88;3.55;;;;;;;;;;5103382;28;20247;-22
2022/01/18 14:08:31;;;;;;;6.45;2.78;;;;;;;;;;5103593;28;20217;-23
2022/01/18 14:10:57;;;;;;;6.05;3.15;;;;;;;;;;5102793;28;20216;-21
2022/01/18 14:13:24;;;;;;;6.57;3.15;;;;;;;;;;5092064;28;20221;-22
2022/01/18 14:15:51;;;;;;;6.50;3.20;;;;;;;;;;5089231;28;20219;-23
2022/01/18 14:18:18;;;;;;;5.18;2.85;;;;;;;;;;5102918;28;20323;-23
2022/01/18 14:20:45;;;;;;;7.15;3.33;;;;;;;;;;5102986;28;20232;-22
2022/01/18 14:23:12;;;;;;;5.28;2.65;;;;;;;;;;5101952;28;20914;-22
2022/01/18 14:25:39;;;;;;;4.85;2.58;;;;;;;;;;5082831;28;20213;-24
2022/01/18 14:28:06;;;;;;;5.72;2.90;;;;;;;;;;5081797;28;20220;-23
2022/01/18 14:30:33;;;;;;;5.82;2.88;;;;;;;;;;5087092;28;20217;-24
2022/01/18 14:33:00;;;;;;;5.45;2.30;;;;;;;;;;5102773;28;20199;-23
2022/01/18 14:35:27;;;;;;;6.10;2.50;;;;;;;;;;5091369;28;21158;-23
2022/01/18 14:37:54;;;;;;;5.10;2.80;;;;;;;;;;5081883;28;20237;-22
2022/01/18 14:40:21;;;;;;;8.35;3.05;;;;;;;;;;5082914;28;20218;-22
2022/01/18 14:42:51;;;;;;;6.55;3.00;;;;;;;;;;5082977;28;20212;-21
2022/01/18 14:45:30;;;;;;;3.78;2.30;;;;;;;;;;5083116;28;20205;-22
2022/01/18 14:47:58;;;;;;;7.25;3.22;;;;;;;;;;5102896;28;20277;-24
2022/01/18 14:50:25;;;;;;;5.55;2.45;;;;;;;;;;5102644;28;20217;-21
2022/01/18 14:52:52;;;;;;;5.88;2.80;;;;;;;;;;5102913;28;20200;-22
2022/01/18 14:55:19;;;;;;;3.58;2.03;;;;;;;;;;5102923;28;20220;-25
2022/01/18 14:57:46;;;;;;;4.72;2.85;;;;;;;;;;5088657;28;20244;-24
2022/01/18 15:00:13;;;;;;;6.72;2.88;;;;;;;;;;5083134;28;21225;-23
2022/01/18 15:02:40;;;;;;;6.45;2.60;;;;;;;;;;5102428;28;20204;-22
2022/01/18 15:05:07;;;;;;;5.63;2.28;;;;;;;;;;5103437;28;20235;-22
2022/01/18 15:07:34;;;;;;;6.25;2.63;;;;;;;;;;5101275;28;20229;-22
2022/01/18 15:10:03;;;;;;;4.68;2.50;;;;;;;;;;5102348;28;20212;-26
2022/01/18 15:12:30;;;;;;;4.88;2.63;;;;;;;;;;5101344;28;20232;-24
2022/01/18 15:14:57;;;;;;;6.72;2.58;;;;;;;;;;5102221;28;20223;-25
2022/01/18 15:17:24;;;;;;;6.35;2.50;;;;;;;;;;5102274;28;20209;-22
2022/01/18 15:19:51;;;;;;;5.45;2.63;;;;;;;;;;5087693;28;20229;-22
2022/01/18 15:22:19;;;;;;;6.82;2.50;;;;;;;;;;5081711;28;20225;-22
2022/01/18 15:24:46;;;;;;;7.55;2.42;;;;;;;;;;5082194;28;20210;-22
2022/01/18 15:27:13;;;;;;;6.53;2.70;;;;;;;;;;5082235;28;20215;-22
2022/01/18 15:29:41;;;;;;;7.63;2.63;;;;;;;;;;5081550;28;20229;-22
2022/01/18 15:32:08;;;;;;;5.85;2.33;;;;;;;;;;5099019;28;20220;-22
2022/01/18 15:34:40;;;;;;;6.85;2.45;;;;;;;;;;5101870;28;20304;-26
2022/01/18 15:37:07;;;;;;;5.05;2.60;;;;;;;;;;5102685;28;20232;-21
2022/01/18 15:39:35;;;;;;;4.68;2.28;;;;;;;;;;5101580;28;20227;-22
2022/01/18 15:42:02;;;;;;;4.47;1.90;;;;;;;;;;5100379;28;20232;-21
2022/01/18 15:44:29;;;;;;;8.48;2.60;;;;;;;;;;5101072;28;20219;-23
2022/01/18 15:46:56;;;;;;;5.15;2.13;;;;;;;;;;5101781;28;20235;-24
2022/01/18 15:49:23;;;;;;;5.30;2.25;;;;;;;;;;5096192;28;20233;-29
2022/01/18 15:51:50;;;;;;;5.93;2.33;;;;;;;;;;5101163;28;20235;-22
2022/01/18 15:54:19;;;;;;;6.97;2.35;;;;;;;;;;5082871;28;20247;-24
2022/01/18 15:56:46;;;;;;;5.28;2.50;;;;;;;;;;5082081;28;20233;-23
2022/01/18 15:59:13;;;;;;;4.38;2.00;;;;;;;;;;5081868;28;21114;-22